Time;durP1;ratioP1;P1;durP2;ratioP2;P2;SDS_P1;SDS_P2;PMS_P1;PMS_P2;Temp;Humidity;BMP_temperature;BMP_pressure;BME280_temperature;BME280_humidity;BME280_pressure;Samples;Min_cycle;Max_cycle;Signal;HPM_P1;HPM_P2
2021/03/15 00:00:18;;;;;;;3.13;2.83;;;3.50;99.90;;;;;;5087517;28;20630;-57
2021/03/15 00:02:44;;;;;;;4.23;3.30;;;3.40;99.90;;;;;;5103811;28;20298;-51
2021/03/15 00:05:12;;;;;;;3.40;3.10;;;3.40;99.90;;;;;;5094760;28;20527;-58
2021/03/15 00:07:39;;;;;;;4.83;3.30;;;3.30;99.90;;;;;;5085194;28;20181;-49
2021/03/15 00:10:07;;;;;;;5.87;3.73;;;3.30;99.90;;;;;;5077640;28;20217;-57
2021/03/15 00:12:32;;;;;;;4.73;3.50;;;3.30;99.90;;;;;;5112718;27;20196;-56
2021/03/15 00:14:59;;;;;;;4.97;3.70;;;3.30;99.90;;;;;;5114637;28;20197;-51
2021/03/15 00:17:24;;;;;;;3.73;3.20;;;3.30;99.90;;;;;;5113710;28;20197;-52
2021/03/15 00:19:50;;;;;;;5.63;3.20;;;3.40;99.90;;;;;;5113928;28;20268;-50
2021/03/15 00:22:15;;;;;;;4.03;3.23;;;3.40;99.90;;;;;;5114768;28;20222;-55
2021/03/15 00:24:41;;;;;;;4.20;3.50;;;3.50;99.90;;;;;;5114446;28;20538;-55
2021/03/15 00:27:06;;;;;;;4.03;3.40;;;3.60;99.90;;;;;;5115533;28;20487;-53
2021/03/15 00:29:32;;;;;;;4.83;3.77;;;3.70;99.90;;;;;;5115222;28;20520;-52
2021/03/15 00:31:58;;;;;;;4.23;3.83;;;3.80;99.90;;;;;;5114463;28;20169;-52
2021/03/15 00:34:23;;;;;;;4.17;3.50;;;3.80;99.90;;;;;;5114442;28;20667;-55
2021/03/15 00:36:49;;;;;;;4.43;3.80;;;3.90;99.90;;;;;;5114408;28;20230;-52
2021/03/15 00:39:14;;;;;;;4.33;3.70;;;3.80;99.90;;;;;;5114643;28;20173;-53
2021/03/15 00:41:40;;;;;;;4.20;3.80;;;3.80;99.90;;;;;;5114500;28;20176;-55
2021/03/15 00:44:07;;;;;;;4.37;3.97;;;3.70;99.90;;;;;;5114354;28;20173;-54
2021/03/15 00:46:33;;;;;;;4.33;3.67;;;3.70;99.90;;;;;;5114628;28;20242;-50
2021/03/15 00:48:58;;;;;;;4.10;3.70;;;3.60;99.90;;;;;;5114485;28;20544;-57
2021/03/15 00:51:24;;;;;;;5.20;3.43;;;3.60;99.90;;;;;;5114553;28;20176;-52
2021/03/15 00:53:49;;;;;;;4.03;3.63;;;3.50;99.90;;;;;;5114633;28;20169;-58
2021/03/15 00:56:15;;;;;;;3.87;3.47;;;3.60;99.90;;;;;;5114653;28;20192;-53
2021/03/15 00:58:41;;;;;;;3.70;3.40;;;3.50;99.90;;;;;;5114933;28;20242;-55
2021/03/15 01:01:06;;;;;;;4.30;3.90;;;3.50;99.90;;;;;;5114320;28;20173;-55
2021/03/15 01:03:32;;;;;;;3.57;3.27;;;3.50;99.90;;;;;;5114200;28;20182;-48
2021/03/15 01:05:58;;;;;;;3.80;3.27;;;3.50;99.90;;;;;;5114922;28;20213;-52
2021/03/15 01:08:24;;;;;;;5.17;3.77;;;3.50;99.90;;;;;;5118488;28;20649;-51
2021/03/15 01:10:50;;;;;;;5.13;4.00;;;3.50;99.90;;;;;;5118108;28;20196;-52
2021/03/15 01:13:16;;;;;;;4.63;3.80;;;3.50;99.90;;;;;;5118536;28;20297;-52
2021/03/15 01:15:43;;;;;;;3.97;3.57;;;3.40;99.90;;;;;;5118633;28;20197;-54
2021/03/15 01:18:08;;;;;;;5.13;4.10;;;3.50;99.90;;;;;;5118485;28;20656;-52
2021/03/15 01:20:35;;;;;;;4.00;3.60;;;3.50;99.90;;;;;;5118814;28;20169;-54
2021/03/15 01:23:00;;;;;;;4.83;4.03;;;3.50;99.90;;;;;;5118728;28;20196;-54
2021/03/15 01:25:34;;;;;;;4.23;3.80;;;3.50;99.90;;;;;;5118029;28;20248;-50
2021/03/15 01:28:00;;;;;;;5.03;4.17;;;3.50;99.90;;;;;;5118710;28;20256;-54
2021/03/15 01:30:29;;;;;;;5.13;3.77;;;3.50;99.90;;;;;;5118264;28;20527;-53
2021/03/15 01:32:56;;;;;;;4.50;4.10;;;3.50;99.90;;;;;;5117981;28;20193;-57
2021/03/15 01:35:21;;;;;;;4.50;4.10;;;3.50;99.90;;;;;;5118299;28;20280;-53
2021/03/15 01:37:47;;;;;;;4.57;4.17;;;3.60;99.90;;;;;;5118195;28;20288;-50
2021/03/15 01:40:14;;;;;;;4.30;3.87;;;3.60;99.90;;;;;;5117740;28;20528;-57
2021/03/15 01:42:39;;;;;;;3.60;3.20;;;3.80;99.90;;;;;;5118038;28;20196;-50
2021/03/15 01:45:06;;;;;;;4.23;3.83;;;3.90;99.90;;;;;;5117867;28;20193;-49
2021/03/15 01:47:32;;;;;;;4.40;3.90;;;3.80;99.90;;;;;;5117868;28;20226;-53
2021/03/15 01:49:58;;;;;;;4.33;3.80;;;3.90;99.90;;;;;;5117595;28;20183;-54
2021/03/15 01:52:23;;;;;;;4.10;3.70;;;4.00;99.90;;;;;;5117358;28;20177;-55
2021/03/15 01:54:50;;;;;;;3.70;3.37;;;4.10;99.90;;;;;;5117580;28;20645;-51
2021/03/15 01:57:15;;;;;;;5.03;4.17;;;4.10;99.90;;;;;;5117343;28;20212;-51
2021/03/15 01:59:41;;;;;;;4.27;3.87;;;4.10;99.90;;;;;;5117970;28;20230;-56
2021/03/15 02:02:07;;;;;;;4.17;3.77;;;4.20;99.90;;;;;;5117244;28;20204;-51
2021/03/15 02:04:32;;;;;;;4.33;3.93;;;4.20;99.90;;;;;;5117827;28;20524;-54
2021/03/15 02:06:58;;;;;;;4.40;4.00;;;4.30;99.90;;;;;;5117680;28;20203;-57
2021/03/15 02:09:23;;;;;;;4.30;3.87;;;4.20;99.90;;;;;;5117098;28;20189;-52
2021/03/15 02:12:16;;;;;;;4.53;4.07;;;4.20;99.90;;;;;;5117136;28;20200;-54
2021/03/15 02:15:17;;;;;;;4.57;4.03;;;4.10;99.90;;;;;;5117375;28;20192;-51
2021/03/15 02:18:08;;;;;;;4.30;4.00;;;4.10;99.90;;;;;;5117331;28;20533;-55
2021/03/15 02:20:58;;;;;;;5.23;4.57;;;4.00;99.90;;;;;;5117281;27;20153;-57
2021/03/15 02:24:08;;;;;;;5.57;5.07;;;4.00;99.90;;;;;;5117103;28;20250;-52
2021/03/15 02:26:36;;;;;;;5.37;4.87;;;3.90;99.90;;;;;;5078827;28;20676;-57
2021/03/15 02:29:08;;;;;;;4.50;4.10;;;3.90;99.90;;;;;;5116911;28;20253;-51
2021/03/15 02:31:45;;;;;;;5.30;4.80;;;3.90;99.90;;;;;;5116948;28;20283;-50
2021/03/15 02:34:16;;;;;;;4.60;4.20;;;4.00;99.90;;;;;;5117118;28;20205;-53
2021/03/15 02:36:45;;;;;;;4.70;4.20;;;4.10;99.90;;;;;;5116795;28;20254;-54
2021/03/15 02:39:16;;;;;;;5.00;4.30;;;4.10;99.90;;;;;;5116584;28;20161;-51
2021/03/15 02:41:45;;;;;;;5.70;4.77;;;4.20;99.90;;;;;;5116332;28;20502;-54
2021/03/15 02:44:13;;;;;;;5.33;4.30;;;4.30;99.90;;;;;;5116974;28;20169;-58
2021/03/15 02:46:41;;;;;;;5.13;4.63;;;4.30;99.90;;;;;;5116386;28;20189;-51
2021/03/15 02:49:12;;;;;;;5.03;4.40;;;4.30;99.90;;;;;;5116367;28;20206;-49
2021/03/15 02:51:39;;;;;;;5.20;4.70;;;4.50;99.90;;;;;;5116397;28;20177;-52
2021/03/15 02:54:07;;;;;;;6.03;4.87;;;4.50;99.90;;;;;;5116879;28;20179;-57
2021/03/15 02:56:38;;;;;;;5.03;4.53;;;4.60;99.90;;;;;;5116406;28;20189;-56
2021/03/15 02:59:05;;;;;;;5.33;4.43;;;4.70;99.90;;;;;;5116955;28;20593;-50
2021/03/15 03:01:32;;;;;;;6.80;5.27;;;4.60;99.90;;;;;;5116151;28;20165;-55
2021/03/15 03:03:58;;;;;;;5.60;5.00;;;4.60;99.90;;;;;;5116490;28;20176;-49
2021/03/15 03:06:26;;;;;;;5.33;4.80;;;4.60;99.90;;;;;;5116398;28;20197;-50
2021/03/15 03:08:54;;;;;;;5.10;4.60;;;4.50;99.90;;;;;;5116265;28;20169;-52
2021/03/15 03:11:21;;;;;;;5.50;4.97;;;4.50;99.90;;;;;;5115794;28;20181;-49
2021/03/15 03:13:49;;;;;;;5.10;4.60;;;4.50;99.90;;;;;;5116516;28;20519;-57
2021/03/15 03:16:16;;;;;;;5.77;5.17;;;4.60;99.90;;;;;;5115923;28;20292;-54
2021/03/15 03:18:43;;;;;;;5.23;4.73;;;4.70;99.90;;;;;;5115997;28;20250;-56
2021/03/15 03:21:09;;;;;;;5.13;4.40;;;4.80;99.90;;;;;;5115999;28;20178;-52
2021/03/15 03:23:38;;;;;;;5.43;4.93;;;4.80;99.90;;;;;;5116357;28;20170;-55
2021/03/15 03:26:07;;;;;;;5.23;4.73;;;4.80;99.90;;;;;;5115532;28;20541;-52
2021/03/15 03:28:33;;;;;;;5.37;4.87;;;4.90;99.90;;;;;;5115876;28;20173;-58
2021/03/15 03:31:03;;;;;;;5.53;5.03;;;4.90;99.90;;;;;;5115860;28;20181;-54
2021/03/15 03:33:29;;;;;;;6.43;5.20;;;4.90;99.90;;;;;;5115508;27;20520;-54
2021/03/15 03:35:55;;;;;;;6.00;5.40;;;5.00;99.90;;;;;;5115683;28;20741;-55
2021/03/15 03:38:20;;;;;;;6.10;5.43;;;5.00;99.90;;;;;;5115862;28;20201;-50
2021/03/15 03:40:47;;;;;;;7.30;6.00;;;5.10;99.90;;;;;;5114569;28;20177;-49
2021/03/15 03:43:12;;;;;;;5.67;5.17;;;5.20;99.90;;;;;;5115808;28;20244;-58
2021/03/15 03:45:38;;;;;;;5.90;5.30;;;5.30;99.90;;;;;;5115416;28;20196;-55
2021/03/15 03:48:04;;;;;;;6.63;6.03;;;5.20;99.90;;;;;;5115355;28;20188;-58
2021/03/15 03:50:33;;;;;;;6.07;5.47;;;5.30;99.90;;;;;;5115470;28;20181;-51
2021/03/15 03:53:13;;;;;;;6.77;6.07;;;5.30;99.90;;;;;;5115416;28;20176;-58
2021/03/15 03:56:00;;;;;;;6.47;5.80;;;5.30;99.90;;;;;;5115217;28;20197;-49
2021/03/15 03:58:30;;;;;;;6.03;5.43;;;5.20;99.90;;;;;;5115327;28;20215;-53
2021/03/15 04:00:57;;;;;;;6.20;5.60;;;4.90;99.90;;;;;;5114764;28;20173;-56
2021/03/15 04:03:27;;;;;;;6.47;5.87;;;4.80;99.90;;;;;;5114928;28;20647;-52
2021/03/15 04:05:57;;;;;;;6.43;5.80;;;4.60;99.90;;;;;;5096415;28;20264;-54
2021/03/15 04:08:27;;;;;;;7.77;5.77;;;4.60;99.90;;;;;;5094933;28;20178;-54
2021/03/15 04:10:55;;;;;;;6.00;5.40;;;4.50;99.90;;;;;;5094141;28;20189;-55
2021/03/15 04:13:25;;;;;;;7.10;6.40;;;4.50;99.90;;;;;;5094280;28;20184;-49
2021/03/15 04:15:51;;;;;;;6.63;5.97;;;4.50;99.90;;;;;;5094465;28;20541;-52
2021/03/15 04:18:19;;;;;;;7.07;6.07;;;4.60;99.90;;;;;;5094379;28;20741;-52
2021/03/15 04:20:48;;;;;;;7.00;5.97;;;4.60;99.90;;;;;;5094296;28;20653;-50
2021/03/15 04:23:20;;;;;;;7.30;6.60;;;4.60;99.90;;;;;;5094301;28;20507;-54
2021/03/15 04:25:48;;;;;;;7.47;6.30;;;4.50;99.90;;;;;;5087272;28;20214;-51
2021/03/15 04:28:14;;;;;;;7.40;6.60;;;4.50;99.90;;;;;;5073914;28;20194;-50
2021/03/15 04:30:42;;;;;;;7.77;6.97;;;4.40;99.90;;;;;;5072535;28;20269;-56
2021/03/15 04:33:08;;;;;;;7.17;6.43;;;4.40;99.90;;;;;;5072108;28;20170;-51
2021/03/15 04:35:35;;;;;;;8.40;7.57;;;4.30;99.90;;;;;;5074062;28;20198;-57
2021/03/15 04:38:04;;;;;;;7.77;6.97;;;4.30;99.90;;;;;;5073937;28;20202;-54
2021/03/15 04:40:32;;;;;;;7.80;7.00;;;4.20;99.90;;;;;;5073438;28;20175;-55
2021/03/15 04:43:01;;;;;;;10.10;8.30;;;4.20;99.90;;;;;;5073602;28;20183;-58
2021/03/15 04:45:34;;;;;;;10.07;8.43;;;4.20;99.90;;;;;;5073709;28;20194;-52
2021/03/15 04:48:01;;;;;;;7.73;6.93;;;4.10;99.90;;;;;;5074072;28;20212;-49
2021/03/15 04:50:27;;;;;;;8.50;7.60;;;4.10;99.90;;;;;;5078046;28;20197;-51
2021/03/15 04:52:54;;;;;;;9.20;7.67;;;4.10;99.90;;;;;;5071589;28;20190;-52
2021/03/15 04:55:20;;;;;;;10.00;8.23;;;4.10;99.90;;;;;;5071318;28;20250;-51
2021/03/15 04:57:49;;;;;;;9.83;7.93;;;4.10;99.90;;;;;;5071510;28;20225;-57
2021/03/15 05:00:16;;;;;;;10.00;8.50;;;4.00;99.90;;;;;;5071469;28;20228;-56
2021/03/15 05:02:47;;;;;;;9.50;8.40;;;4.00;99.90;;;;;;5071547;28;20260;-57
2021/03/15 05:05:15;;;;;;;9.17;8.27;;;4.00;99.90;;;;;;5071374;28;20281;-54
2021/03/15 05:07:41;;;;;;;9.53;8.57;;;4.00;99.90;;;;;;5073460;28;20182;-49
2021/03/15 05:10:08;;;;;;;9.50;8.53;;;4.10;99.90;;;;;;5073524;28;20691;-52
2021/03/15 05:12:35;;;;;;;9.77;8.77;;;4.20;99.90;;;;;;5073345;28;20182;-57
2021/03/15 05:15:01;;;;;;;10.17;9.17;;;4.20;99.90;;;;;;5073443;28;20198;-57
2021/03/15 05:17:27;;;;;;;9.07;8.13;;;4.30;99.90;;;;;;5072961;28;20293;-57
2021/03/15 05:19:54;;;;;;;10.23;8.97;;;4.30;99.90;;;;;;5073517;28;20262;-50
2021/03/15 05:22:19;;;;;;;9.90;8.93;;;4.30;99.90;;;;;;5073080;28;20236;-52
2021/03/15 05:24:46;;;;;;;9.90;8.90;;;4.20;99.90;;;;;;5073333;28;20178;-49
2021/03/15 05:27:12;;;;;;;9.60;8.70;;;4.10;99.90;;;;;;5074170;28;20170;-49
2021/03/15 05:29:39;;;;;;;9.77;8.77;;;4.00;99.90;;;;;;5073588;28;20185;-58
2021/03/15 05:32:07;;;;;;;10.70;9.60;;;3.90;99.90;;;;;;5073557;28;20235;-57
2021/03/15 05:34:33;;;;;;;11.10;10.00;;;3.90;99.90;;;;;;5073627;28;20178;-53
2021/03/15 05:37:01;;;;;;;11.43;9.57;;;3.90;99.90;;;;;;5073589;28;20232;-54
2021/03/15 05:39:27;;;;;;;9.40;8.50;;;3.80;99.90;;;;;;5073301;28;20167;-51
2021/03/15 05:42:10;;;;;;;9.80;8.70;;;3.70;99.90;;;;;;5073499;28;20170;-50
2021/03/15 05:45:06;;;;;;;9.60;8.63;;;3.80;99.90;;;;;;5073387;28;20165;-57
2021/03/15 05:47:32;;;;;;;9.80;8.30;;;3.70;99.90;;;;;;5073495;28;20201;-56
2021/03/15 05:50:28;;;;;;;11.20;8.53;;;3.70;99.90;;;;;;5091467;28;20201;-55
2021/03/15 05:53:20;;;;;;;11.60;9.27;;;3.80;99.90;;;;;;5086233;28;20510;-50
2021/03/15 05:56:21;;;;;;;10.07;8.87;;;3.90;99.90;;;;;;5076689;28;20534;-56
2021/03/15 05:59:10;;;;;;;9.50;8.50;;;4.00;99.90;;;;;;5053799;28;21009;-49
2021/03/15 06:02:03;;;;;;;11.10;9.30;;;4.00;99.90;;;;;;5076866;28;20171;-54
2021/03/15 06:04:53;;;;;;;12.50;8.73;;;4.00;99.90;;;;;;5084244;28;20655;-56
2021/03/15 06:07:27;;;;;;;10.30;8.93;;;4.00;99.90;;;;;;5093626;28;20653;-57
2021/03/15 06:09:55;;;;;;;11.37;8.80;;;4.00;99.90;;;;;;5087527;28;20198;-54
2021/03/15 06:12:25;;;;;;;12.00;8.80;;;4.10;99.90;;;;;;5076019;28;20649;-53
2021/03/15 06:14:53;;;;;;;8.80;7.87;;;4.20;99.90;;;;;;5080038;28;20544;-48
2021/03/15 06:17:21;;;;;;;11.53;8.33;;;4.20;99.90;;;;;;5076422;28;20202;-56
2021/03/15 06:19:48;;;;;;;9.93;8.17;;;4.10;99.90;;;;;;5089125;28;20170;-55
2021/03/15 06:22:15;;;;;;;10.40;8.33;;;4.10;99.90;;;;;;5076217;28;20187;-55
2021/03/15 06:24:41;;;;;;;10.67;8.60;;;4.10;99.90;;;;;;5091078;28;20182;-53
2021/03/15 06:27:08;;;;;;;9.77;8.17;;;4.10;99.90;;;;;;5095084;28;20177;-51
2021/03/15 06:29:34;;;;;;;8.37;7.57;;;4.10;99.90;;;;;;5095733;28;20637;-50
2021/03/15 06:32:01;;;;;;;10.17;7.83;;;4.10;99.90;;;;;;5096115;28;20170;-47
2021/03/15 06:34:28;;;;;;;8.67;7.67;;;4.00;99.90;;;;;;5096270;28;20178;-52
2021/03/15 06:36:57;;;;;;;8.40;7.43;;;4.00;99.90;;;;;;5093787;28;20653;-55
2021/03/15 06:39:26;;;;;;;9.83;7.60;;;4.00;99.90;;;;;;5093910;28;20173;-51
2021/03/15 06:41:56;;;;;;;9.63;7.27;;;3.90;99.90;;;;;;5094111;28;20170;-57
2021/03/15 06:44:22;;;;;;;8.77;7.70;;;3.90;99.90;;;;;;5093881;28;20648;-49
2021/03/15 06:46:47;;;;;;;9.70;7.47;;;4.00;99.90;;;;;;5093745;28;20193;-52
2021/03/15 06:49:13;;;;;;;8.37;7.30;;;4.00;99.90;;;;;;5093739;28;20288;-52
2021/03/15 06:51:59;;;;;;;10.77;7.00;;;4.10;99.90;;;;;;5095358;28;20170;-52
2021/03/15 06:54:26;;;;;;;9.50;7.33;;;4.00;99.90;;;;;;5096292;28;20185;-51
2021/03/15 06:57:10;;;;;;;10.20;7.17;;;4.10;99.90;;;;;;5096272;28;20602;-57
2021/03/15 06:59:56;;;;;;;8.10;6.77;;;4.20;99.90;;;;;;5095804;28;20617;-52
2021/03/15 07:02:27;;;;;;;10.07;7.10;;;4.30;99.90;;;;;;5096057;28;20154;-50
2021/03/15 07:04:54;;;;;;;8.60;6.87;;;4.40;99.90;;;;;;5094829;28;20209;-49
2021/03/15 07:07:28;;;;;;;8.30;7.10;;;4.40;99.90;;;;;;5095621;28;20177;-53
2021/03/15 07:09:55;;;;;;;9.47;6.90;;;4.30;99.90;;;;;;5095443;28;20262;-52
2021/03/15 07:12:23;;;;;;;7.93;6.90;;;4.20;99.90;;;;;;5095550;28;20540;-47
2021/03/15 07:14:51;;;;;;;8.63;7.20;;;4.30;99.90;;;;;;5095498;28;20170;-56
2021/03/15 07:17:25;;;;;;;9.67;6.67;;;4.20;99.90;;;;;;5095285;28;20189;-47
2021/03/15 07:19:52;;;;;;;7.80;7.03;;;4.20;99.90;;;;;;5095353;28;20230;-50
2021/03/15 07:22:26;;;;;;;8.30;6.80;;;4.30;99.90;;;;;;5095437;28;20192;-54
2021/03/15 07:25:08;;;;;;;8.67;7.23;;;4.40;99.90;;;;;;5095356;28;20193;-48
2021/03/15 07:27:36;;;;;;;8.93;6.73;;;4.40;99.90;;;;;;5095405;28;20266;-58
2021/03/15 07:30:27;;;;;;;9.40;7.13;;;4.60;99.90;;;;;;5095179;28;20182;-48
2021/03/15 07:32:53;;;;;;;8.27;6.80;;;4.70;99.90;;;;;;5095137;28;20184;-55
2021/03/15 07:35:31;;;;;;;7.17;5.97;;;4.70;99.90;;;;;;5095423;28;20711;-50
2021/03/15 07:37:56;;;;;;;7.33;6.03;;;4.80;99.90;;;;;;5095213;28;20201;-51
2021/03/15 07:40:43;;;;;;;6.00;5.40;;;5.10;99.90;;;;;;5095061;28;20252;-48
2021/03/15 07:43:23;;;;;;;6.50;5.77;;;5.20;99.90;;;;;;5092132;28;20170;-50
2021/03/15 07:45:49;;;;;;;7.23;5.57;;;5.30;99.90;;;;;;5081588;28;20208;-49
2021/03/15 07:48:17;;;;;;;6.43;5.53;;;5.40;99.90;;;;;;5083476;28;20186;-56
2021/03/15 07:51:03;;;;;;;6.97;5.73;;;5.50;99.90;;;;;;5074357;28;20174;-49
2021/03/15 07:53:42;;;;;;;7.20;5.83;;;5.20;99.90;;;;;;5074705;28;20181;-47
2021/03/15 07:56:29;;;;;;;6.43;5.77;;;5.10;99.90;;;;;;5074771;28;20563;-55
2021/03/15 07:58:55;;;;;;;6.83;5.17;;;5.10;99.90;;;;;;5074297;28;20691;-49
2021/03/15 08:01:21;;;;;;;7.30;5.20;;;5.00;99.90;;;;;;5074478;28;20198;-53
2021/03/15 08:03:46;;;;;;;7.20;5.13;;;5.00;99.90;;;;;;5075098;28;20208;-51
2021/03/15 08:06:13;;;;;;;6.50;5.37;;;4.90;99.90;;;;;;5074308;28;20665;-58
2021/03/15 08:08:41;;;;;;;5.70;5.20;;;4.90;99.90;;;;;;5074615;28;20232;-48
2021/03/15 08:11:11;;;;;;;7.17;5.60;;;4.80;99.90;;;;;;5074194;28;20186;-51
2021/03/15 08:13:47;;;;;;;7.47;5.80;;;4.90;99.90;;;;;;5074297;28;20220;-55
2021/03/15 08:16:14;;;;;;;5.97;5.37;;;5.00;99.90;;;;;;5073996;28;20220;-49
2021/03/15 08:18:46;;;;;;;6.40;5.20;;;5.10;99.90;;;;;;5074177;28;20198;-54
2021/03/15 08:21:18;;;;;;;5.70;5.10;;;5.10;99.90;;;;;;5074078;28;20190;-52
2021/03/15 08:23:45;;;;;;;6.50;5.20;;;5.00;99.90;;;;;;5074152;28;20162;-51
2021/03/15 08:26:13;;;;;;;5.70;5.10;;;5.10;99.90;;;;;;5074377;28;20268;-48
2021/03/15 08:28:40;;;;;;;6.37;5.73;;;5.20;99.90;;;;;;5074096;28;20178;-49
2021/03/15 08:31:08;;;;;;;5.63;5.13;;;5.30;99.90;;;;;;5074005;28;20526;-53
2021/03/15 08:33:34;;;;;;;7.40;4.93;;;5.30;99.90;;;;;;5074188;28;20510;-49
2021/03/15 08:36:00;;;;;;;6.43;5.20;;;5.20;99.90;;;;;;5074392;28;20202;-50
2021/03/15 08:38:31;;;;;;;5.87;5.00;;;5.10;99.90;;;;;;5080838;28;20214;-51
2021/03/15 08:40:58;;;;;;;6.00;5.20;;;5.10;99.90;;;;;;5086979;28;20213;-52
2021/03/15 08:43:25;;;;;;;7.90;5.37;;;5.10;99.90;;;;;;5076452;28;20249;-50
2021/03/15 08:45:59;;;;;;;6.10;5.50;;;5.00;99.90;;;;;;5085049;28;20284;-54
2021/03/15 08:48:37;;;;;;;6.40;5.50;;;5.00;99.90;;;;;;5073932;28;20222;-52
2021/03/15 08:51:10;;;;;;;7.70;5.60;;;5.00;99.90;;;;;;5073632;28;20173;-51
2021/03/15 08:53:44;;;;;;;6.40;5.27;;;5.00;99.90;;;;;;5072421;28;20733;-48
2021/03/15 08:56:19;;;;;;;7.27;5.53;;;5.00;99.90;;;;;;5073939;28;20217;-48
2021/03/15 08:58:45;;;;;;;7.23;5.87;;;4.90;99.90;;;;;;5082332;28;20293;-51
2021/03/15 09:01:13;;;;;;;6.90;6.07;;;4.70;99.90;;;;;;5094950;28;20903;-48
2021/03/15 09:03:56;;;;;;;8.03;5.70;;;4.80;99.90;;;;;;5082916;28;20569;-52
2021/03/15 09:06:36;;;;;;;8.80;6.03;;;4.80;99.90;;;;;;5084114;28;20197;-55
2021/03/15 09:09:04;;;;;;;8.43;6.50;;;4.80;99.90;;;;;;5081805;28;20174;-51
2021/03/15 09:11:35;;;;;;;6.93;6.00;;;4.80;99.90;;;;;;5079039;28;20174;-56
2021/03/15 09:16:46;;;;;;;6.13;5.37;;;4.80;99.90;;;;;;5081947;28;20193;-51
2021/03/15 09:19:23;;;;;;;6.83;5.87;;;4.70;99.90;;;;;;5084537;28;20202;-54
2021/03/15 09:21:54;;;;;;;6.90;5.77;;;4.80;99.90;;;;;;5084892;28;20220;-57
2021/03/15 09:24:44;;;;;;;5.77;5.17;;;4.90;99.90;;;;;;5086172;28;20262;-48
2021/03/15 09:27:26;;;;;;;6.17;5.40;;;5.00;99.90;;;;;;5085335;28;20178;-54
2021/03/15 09:30:21;;;;;;;7.10;5.07;;;5.10;99.90;;;;;;5088846;28;20257;-48
2021/03/15 09:32:55;;;;;;;5.90;4.90;;;5.10;99.90;;;;;;5082691;28;20182;-50
2021/03/15 09:35:40;;;;;;;6.27;5.13;;;5.20;99.90;;;;;;5089482;28;20197;-48
2021/03/15 09:38:11;;;;;;;6.13;4.80;;;5.30;99.90;;;;;;5089727;28;20244;-49
2021/03/15 09:40:40;;;;;;;6.27;5.60;;;5.30;99.90;;;;;;5098658;28;20594;-50
2021/03/15 09:43:06;;;;;;;5.57;5.07;;;5.30;99.90;;;;;;5110436;28;20755;-49
2021/03/15 09:45:40;;;;;;;5.47;4.47;;;5.50;99.90;;;;;;5114754;28;20713;-51
2021/03/15 09:48:22;;;;;;;4.90;4.30;;;5.60;99.90;;;;;;5085677;28;20161;-54
2021/03/15 09:50:50;;;;;;;5.70;4.13;;;5.70;99.90;;;;;;5106812;28;20614;-50
2021/03/15 09:53:17;;;;;;;5.03;4.00;;;5.70;99.90;;;;;;5111380;28;20648;-56
2021/03/15 09:55:44;;;;;;;6.27;4.40;;;5.60;99.90;;;;;;5117972;28;20300;-47
2021/03/15 09:58:14;;;;;;;4.77;4.23;;;5.50;99.90;;;;;;5118004;28;20247;-51
2021/03/15 10:00:43;;;;;;;4.33;3.93;;;5.50;99.90;;;;;;5117752;28;20173;-48
2021/03/15 10:03:19;;;;;;;4.07;3.73;;;5.50;99.90;;;;;;5117621;28;20260;-54
2021/03/15 10:05:47;;;;;;;5.17;3.77;;;5.60;99.90;;;;;;5118252;28;20197;-50
2021/03/15 10:08:12;;;;;;;6.57;3.90;;;5.80;99.90;;;;;;5117746;28;20196;-49
2021/03/15 10:10:38;;;;;;;7.53;3.83;;;5.90;99.90;;;;;;5117089;28;20552;-48
2021/03/15 10:13:06;;;;;;;5.20;3.43;;;5.90;99.90;;;;;;5116280;28;20263;-57
2021/03/15 10:15:32;;;;;;;5.93;3.60;;;6.10;99.90;;;;;;5093044;28;20206;-48
2021/03/15 10:17:58;;;;;;;6.13;3.70;;;6.30;99.90;;;;;;5090972;28;20220;-50
2021/03/15 10:20:29;;;;;;;3.77;3.30;;;6.60;99.90;;;;;;5092307;28;20202;-53
2021/03/15 10:22:55;;;;;;;5.13;3.47;;;6.50;99.90;;;;;;5085668;28;20179;-50
2021/03/15 10:25:21;;;;;;;7.03;3.60;;;6.60;99.90;;;;;;5087369;28;20195;-52
2021/03/15 10:27:57;;;;;;;4.13;3.00;;;6.80;99.90;;;;;;5087437;28;20174;-49
2021/03/15 10:30:41;;;;;;;3.50;2.53;;;7.50;99.90;;;;;;5088433;28;20186;-52
2021/03/15 10:33:09;;;;;;;4.10;2.70;;;8.30;99.90;;;;;;5086612;28;20537;-53
2021/03/15 10:35:35;;;;;;;3.00;2.50;;;10.00;99.90;;;;;;5085176;28;20198;-50
2021/03/15 10:38:02;;;;;;;3.90;2.67;;;13.00;99.90;;;;;;5080825;28;20240;-49
2021/03/15 10:40:29;;;;;;;4.20;2.50;;;13.90;99.60;;;;;;5083999;28;20257;-49
2021/03/15 10:42:55;;;;;;;3.17;2.43;;;14.10;97.40;;;;;;5087347;28;20199;-53
2021/03/15 10:45:24;;;;;;;4.73;2.70;;;14.80;96.90;;;;;;5084700;28;20690;-54
2021/03/15 10:47:50;;;;;;;3.37;2.80;;;12.40;97.70;;;;;;5083867;28;20319;-58
2021/03/15 10:50:33;;;;;;;3.73;3.00;;;11.00;99.30;;;;;;5094737;28;20201;-49
2021/03/15 10:53:11;;;;;;;3.93;2.97;;;9.90;99.90;;;;;;5095792;28;20248;-51
2021/03/15 10:55:37;;;;;;;5.00;3.13;;;9.20;99.90;;;;;;5086785;28;20232;-55
2021/03/15 10:58:09;;;;;;;4.33;3.00;;;9.00;99.90;;;;;;5089161;28;20240;-53
2021/03/15 11:00:38;;;;;;;3.97;3.10;;;8.70;99.90;;;;;;5095724;28;20178;-48
2021/03/15 11:03:04;;;;;;;5.23;3.30;;;8.50;99.90;;;;;;5095468;28;20637;-56
2021/03/15 11:05:30;;;;;;;3.60;2.93;;;8.30;99.90;;;;;;5096918;28;20209;-49
2021/03/15 11:07:56;;;;;;;3.70;3.00;;;8.10;99.90;;;;;;5099403;28;20538;-57
2021/03/15 11:10:31;;;;;;;5.23;3.40;;;8.00;99.90;;;;;;5092177;28;20335;-49
2021/03/15 11:12:58;;;;;;;5.87;3.50;;;8.10;99.90;;;;;;5087791;28;20239;-51
2021/03/15 11:15:33;;;;;;;3.57;3.27;;;8.10;99.90;;;;;;5097788;28;21453;-57
2021/03/15 11:18:25;;;;;;;4.57;3.50;;;8.30;99.90;;;;;;5086527;28;20558;-56
2021/03/15 11:20:54;;;;;;;5.83;3.40;;;8.30;99.90;;;;;;5087674;28;20262;-55
2021/03/15 11:23:36;;;;;;;4.93;3.50;;;7.90;99.90;;;;;;5110445;28;20231;-56
2021/03/15 11:26:10;;;;;;;4.20;3.07;;;7.80;99.90;;;;;;5095282;28;20194;-50
2021/03/15 11:28:45;;;;;;;4.97;3.03;;;7.60;99.90;;;;;;5110588;28;20229;-56
2021/03/15 11:31:20;;;;;;;3.37;2.80;;;7.60;99.90;;;;;;5104827;28;20176;-54
2021/03/15 11:33:53;;;;;;;3.70;3.07;;;7.60;99.90;;;;;;5100682;28;20264;-51
2021/03/15 11:36:21;;;;;;;4.97;3.33;;;7.40;99.90;;;;;;5111152;28;20193;-54
2021/03/15 11:39:04;;;;;;;4.13;2.77;;;7.50;99.90;;;;;;5094675;28;20738;-58
2021/03/15 11:41:32;;;;;;;3.27;2.90;;;7.60;99.90;;;;;;5109933;28;20200;-55
2021/03/15 11:43:58;;;;;;;4.67;3.33;;;7.80;99.90;;;;;;5107017;28;20177;-56
2021/03/15 11:46:24;;;;;;;4.10;3.00;;;7.90;99.90;;;;;;5106909;28;20880;-52
2021/03/15 11:48:50;;;;;;;4.10;3.10;;;7.80;99.90;;;;;;5083460;28;20242;-48
2021/03/15 11:51:17;;;;;;;3.73;2.70;;;8.00;99.90;;;;;;5079072;28;20650;-58
2021/03/15 11:53:44;;;;;;;3.17;2.70;;;8.10;99.90;;;;;;5075121;28;20185;-58
2021/03/15 11:56:10;;;;;;;3.47;2.67;;;8.00;99.90;;;;;;5073882;28;20257;-48
2021/03/15 11:58:36;;;;;;;3.33;3.00;;;8.10;99.90;;;;;;5073612;28;20198;-55
2021/03/15 12:01:03;;;;;;;3.10;2.80;;;8.20;99.90;;;;;;5074076;28;20176;-51
2021/03/15 12:03:28;;;;;;;3.27;2.97;;;8.20;99.90;;;;;;5074219;28;20159;-52
2021/03/15 12:05:54;;;;;;;3.13;2.83;;;8.20;99.90;;;;;;5074531;28;20194;-55
2021/03/15 12:08:19;;;;;;;5.00;3.00;;;8.10;99.90;;;;;;5074814;28;20201;-56
2021/03/15 12:10:45;;;;;;;5.10;3.00;;;8.00;99.90;;;;;;5073914;28;20216;-56
2021/03/15 12:13:11;;;;;;;3.80;2.70;;;8.00;99.90;;;;;;5074559;28;20626;-52
2021/03/15 12:15:37;;;;;;;3.23;2.43;;;7.90;99.90;;;;;;5073970;28;20190;-48
2021/03/15 12:18:05;;;;;;;2.87;2.40;;;7.80;99.90;;;;;;5074189;28;20206;-49
2021/03/15 12:20:31;;;;;;;3.70;2.63;;;7.80;99.90;;;;;;5074426;28;20170;-48
2021/03/15 12:22:57;;;;;;;3.80;2.70;;;7.70;99.90;;;;;;5073826;28;20155;-52
2021/03/15 12:25:22;;;;;;;3.10;2.00;;;7.60;99.90;;;;;;5074002;28;20248;-49
2021/03/15 12:27:48;;;;;;;3.43;2.10;;;7.60;99.90;;;;;;5074457;28;20188;-58
2021/03/15 12:30:15;;;;;;;3.47;2.03;;;7.50;99.90;;;;;;5073874;28;20182;-48
2021/03/15 12:32:41;;;;;;;3.23;2.10;;;7.40;99.90;;;;;;5073906;28;20239;-49
2021/03/15 12:35:07;;;;;;;2.43;1.53;;;7.30;99.90;;;;;;5074056;28;20608;-54
2021/03/15 12:37:34;;;;;;;2.17;1.77;;;7.20;99.90;;;;;;5073752;28;20190;-49
2021/03/15 12:39:59;;;;;;;2.43;1.80;;;7.10;99.90;;;;;;5074045;28;20180;-58
2021/03/15 12:42:25;;;;;;;1.80;1.70;;;7.00;99.90;;;;;;5074212;28;20166;-49
2021/03/15 12:44:50;;;;;;;1.50;1.40;;;7.10;99.90;;;;;;5073991;28;20246;-56
2021/03/15 12:47:16;;;;;;;2.10;1.50;;;7.10;99.90;;;;;;5073861;28;20204;-49
2021/03/15 12:49:42;;;;;;;2.20;1.40;;;7.20;99.90;;;;;;5073831;28;20668;-51
2021/03/15 12:52:07;;;;;;;2.33;1.50;;;7.10;99.90;;;;;;5073791;28;20182;-52
2021/03/15 12:54:34;;;;;;;2.03;1.70;;;7.00;99.90;;;;;;5074111;28;20197;-53
2021/03/15 12:56:59;;;;;;;2.00;1.77;;;6.80;99.90;;;;;;5073538;28;20190;-57
2021/03/15 12:59:25;;;;;;;3.50;1.90;;;6.50;99.90;;;;;;5073553;28;20174;-52
2021/03/15 13:01:51;;;;;;;3.57;2.20;;;6.40;99.90;;;;;;5074074;28;20557;-58
2021/03/15 13:04:17;;;;;;;3.00;1.87;;;6.50;99.90;;;;;;5077992;28;20174;-48
2021/03/15 13:06:42;;;;;;;2.57;1.90;;;6.60;99.90;;;;;;5078510;28;20194;-50
2021/03/15 13:09:08;;;;;;;2.50;1.90;;;6.60;99.90;;;;;;5077531;28;20178;-53
2021/03/15 13:11:34;;;;;;;1.87;1.70;;;6.60;99.90;;;;;;5077426;28;20197;-55